Time,TemperatureF,DewpointF,PressureIn,WindDirection,WindDirectionDegrees,WindSpeedMPH,WindSpeedGustMPH,Humidity,HourlyPrecipIn,Conditions,Clouds,dailyrainin,SoftwareType,DateUTC
2013-06-13 00:04:00,54.2,48.2,29.97,NW,315,0.7,1.1,80,0.00,,,0.00,WUHU216HW,2013-06-13 07:04:00,
2013-06-13 00:09:00,54.2,48.2,29.97,NNW,338,0.0,1.1,80,0.00,,,0.00,WUHU216HW,2013-06-13 07:09:00,
2013-06-13 00:14:00,54.2,48.2,29.97,NNW,338,0.0,0.9,80,0.00,,,0.00,WUHU216HW,2013-06-13 07:14:00,
2013-06-13 00:19:00,54.2,48.2,29.97,NNW,338,0.0,0.9,80,0.00,,,0.00,WUHU216HW,2013-06-13 07:19:00,
2013-06-13 00:24:00,53.8,46.8,29.97,ENE,68,0.0,0.2,77,0.00,,,0.00,WUHU216HW,2013-06-13 07:24:00,
2013-06-13 00:29:00,53.6,46.6,29.97,NNW,338,0.0,0.2,77,0.00,,,0.00,WUHU216HW,2013-06-13 07:29:00,
2013-06-13 00:34:00,53.5,46.4,29.97,NNW,338,0.0,0.0,77,0.00,,,0.00,WUHU216HW,2013-06-13 07:34:00,
2013-06-13 00:39:00,53.3,46.3,29.97,SE,135,0.4,0.9,77,0.00,,,0.00,WUHU216HW,2013-06-13 07:39:00,
2013-06-13 00:42:00,53.1,46.1,29.97,SE,135,0.0,0.0,77,0.00,,,0.00,WUHU216HW,2013-06-13 07:42:00,
2013-06-13 00:44:00,53.1,46.1,29.97,SE,135,0.0,0.9,77,0.00,,,0.00,WUHU216HW,2013-06-13 07:44:00,
2013-06-13 00:49:00,53.1,46.1,29.97,SE,135,0.0,0.0,77,0.00,,,0.00,WUHU216HW,2013-06-13 07:49:00,
2013-06-13 00:55:00,52.9,45.9,29.97,SW,225,0.2,0.2,77,0.00,,,0.00,WUHU216HW,2013-06-13 07:55:00,
2013-06-13 01:00:00,52.7,45.7,29.97,East,90,0.0,0.2,77,0.00,,,0.00,WUHU216HW,2013-06-13 08:00:00,
2013-06-13 01:05:00,52.6,45.5,29.97,East,90,0.7,0.7,77,0.00,,,0.00,WUHU216HW,2013-06-13 08:05:00,
2013-06-13 01:10:00,52.6,45.9,29.97,ENE,68,1.1,1.1,78,0.00,,,0.00,WUHU216HW,2013-06-13 08:10:00,
2013-06-13 01:15:00,52.7,46.1,29.97,ENE,68,0.4,1.3,78,0.00,,,0.00,WUHU216HW,2013-06-13 08:15:00,
2013-06-13 01:20:00,52.7,46.1,29.97,ENE,68,0.4,1.3,78,0.00,,,0.00,WUHU216HW,2013-06-13 08:20:00,
2013-06-13 01:25:00,52.7,46.1,29.97,ENE,68,0.7,1.1,78,0.00,,,0.00,WUHU216HW,2013-06-13 08:25:00,
2013-06-13 01:30:00,52.7,46.1,29.97,NE,45,1.8,1.8,78,0.00,,,0.00,WUHU216HW,2013-06-13 08:30:00,
2013-06-13 01:35:00,52.7,46.1,29.97,ENE,68,0.0,1.8,78,0.00,,,0.00,WUHU216HW,2013-06-13 08:35:00,
2013-06-13 01:40:00,52.6,45.9,29.97,ENE,68,0.0,1.1,78,0.00,,,0.00,WUHU216HW,2013-06-13 08:40:00,
2013-06-13 01:45:00,52.6,45.9,29.97,ENE,68,0.4,0.9,78,0.00,,,0.00,WUHU216HW,2013-06-13 08:45:00,
2013-06-13 01:50:00,52.4,45.7,29.97,ENE,68,0.2,0.9,78,0.00,,,0.00,WUHU216HW,2013-06-13 08:50:00,
2013-06-13 01:55:00,52.4,45.4,29.97,NE,45,1.1,1.6,77,0.00,,,0.00,WUHU216HW,2013-06-13 08:55:00,
2013-06-13 02:00:00,52.4,45.7,29.97,ENE,68,0.0,1.6,78,0.00,,,0.00,WUHU216HW,2013-06-13 09:00:00,
2013-06-13 02:05:00,52.2,45.2,29.97,ENE,68,0.0,0.4,77,0.00,,,0.00,WUHU216HW,2013-06-13 09:05:00,
2013-06-13 02:10:00,52.2,45.5,29.97,NW,315,0.0,0.4,78,0.00,,,0.00,WUHU216HW,2013-06-13 09:10:00,
2013-06-13 02:15:00,52.2,45.5,29.97,SSW,203,1.1,1.1,78,0.00,,,0.00,WUHU216HW,2013-06-13 09:15:00,
2013-06-13 02:20:00,52.4,46.1,29.97,NW,315,0.4,1.1,79,0.00,,,0.00,WUHU216HW,2013-06-13 09:20:00,
2013-06-13 02:26:00,52.6,45.9,29.97,WSW,248,0.2,0.4,78,0.00,,,0.00,WUHU216HW,2013-06-13 09:26:00,
2013-06-13 02:31:00,52.6,45.9,29.97,NNE,23,0.4,0.7,78,0.00,,,0.00,WUHU216HW,2013-06-13 09:31:00,
2013-06-13 02:36:00,52.6,45.5,29.97,NE,45,0.0,0.7,77,0.00,,,0.00,WUHU216HW,2013-06-13 09:36:00,
2013-06-13 02:41:00,52.4,45.4,29.97,NE,45,0.0,0.4,77,0.00,,,0.00,WUHU216HW,2013-06-13 09:41:00,
2013-06-13 02:46:00,52.2,45.2,29.97,NE,45,0.0,0.2,77,0.00,,,0.00,WUHU216HW,2013-06-13 09:46:00,
2013-06-13 02:51:00,52.4,45.7,29.98,NNW,338,0.0,0.2,78,0.00,,,0.00,WUHU216HW,2013-06-13 09:51:00,
2013-06-13 02:56:00,52.2,45.2,29.97,NNW,338,0.0,0.0,77,0.00,,,0.00,WUHU216HW,2013-06-13 09:56:00,
2013-06-13 03:01:00,52.0,45.1,29.97,North,0,0.0,0.2,77,0.00,,,0.00,WUHU216HW,2013-06-13 10:01:00,
2013-06-13 03:06:00,51.8,44.9,29.97,ESE,113,0.4,0.9,77,0.00,,,0.00,WUHU216HW,2013-06-13 10:06:00,
2013-06-13 03:11:00,51.7,44.7,29.97,East,90,0.4,0.9,77,0.00,,,0.00,WUHU216HW,2013-06-13 10:11:00,
2013-06-13 03:16:00,51.5,44.8,29.97,NE,45,0.0,1.1,78,0.00,,,0.00,WUHU216HW,2013-06-13 10:16:00,
2013-06-13 03:21:00,51.5,44.8,29.97,NE,45,0.0,1.1,78,0.00,,,0.00,WUHU216HW,2013-06-13 10:21:00,
2013-06-13 03:26:00,51.3,44.6,29.97,West,270,0.4,0.4,78,0.00,,,0.00,WUHU216HW,2013-06-13 10:26:00,
2013-06-13 03:31:00,51.3,44.6,29.98,NE,45,0.0,0.4,78,0.00,,,0.00,WUHU216HW,2013-06-13 10:31:00,
2013-06-13 03:36:00,51.5,46.2,29.98,NW,315,0.0,0.0,82,0.00,,,0.00,WUHU216HW,2013-06-13 10:36:00,
2013-06-13 03:41:00,51.8,46.5,29.98,North,0,0.0,0.0,82,0.00,,,0.00,WUHU216HW,2013-06-13 10:41:00,
2013-06-13 03:46:00,52.0,46.7,29.98,WNW,293,0.0,0.4,82,0.00,,,0.00,WUHU216HW,2013-06-13 10:46:00,
2013-06-13 03:52:00,52.2,46.5,29.98,North,0,0.0,0.4,81,0.00,,,0.00,WUHU216HW,2013-06-13 10:52:00,
2013-06-13 03:57:00,52.0,46.1,29.98,NNE,23,0.4,0.4,80,0.00,,,0.00,WUHU216HW,2013-06-13 10:57:00,
2013-06-13 04:02:00,52.0,46.1,29.98,NNE,23,0.0,0.4,80,0.00,,,0.00,WUHU216HW,2013-06-13 11:02:00,
2013-06-13 04:07:00,51.8,45.9,29.98,NE,45,0.7,0.9,80,0.00,,,0.00,WUHU216HW,2013-06-13 11:07:00,
2013-06-13 04:12:00,51.8,45.9,29.98,North,0,0.2,0.9,80,0.00,,,0.00,WUHU216HW,2013-06-13 11:12:00,
2013-06-13 04:17:00,51.8,46.5,29.98,WNW,293,0.0,0.7,82,0.00,,,0.00,WUHU216HW,2013-06-13 11:17:00,
2013-06-13 04:22:00,51.8,46.2,29.98,North,0,0.0,0.9,81,0.00,,,0.00,WUHU216HW,2013-06-13 11:22:00,
2013-06-13 04:27:00,51.7,45.7,29.98,North,0,0.0,0.9,80,0.00,,,0.00,WUHU216HW,2013-06-13 11:27:00,
2013-06-13 04:32:00,51.5,45.5,29.98,NNE,23,0.9,0.9,80,0.00,,,0.00,WUHU216HW,2013-06-13 11:32:00,
2013-06-13 04:37:00,51.5,45.5,29.99,NNE,23,0.4,0.9,80,0.00,,,0.00,WUHU216HW,2013-06-13 11:37:00,
2013-06-13 04:42:00,51.5,45.5,29.99,NE,45,0.2,0.9,80,0.00,,,0.00,WUHU216HW,2013-06-13 11:42:00,
2013-06-13 04:47:00,51.3,45.4,29.99,NNW,338,0.0,0.9,80,0.00,,,0.00,WUHU216HW,2013-06-13 11:47:00,
2013-06-13 04:52:00,51.3,46.0,29.99,NNW,338,0.0,0.4,82,0.00,,,0.00,WUHU216HW,2013-06-13 11:52:00,
2013-06-13 04:57:00,51.1,45.5,29.99,NNW,338,0.0,0.2,81,0.00,,,0.00,WUHU216HW,2013-06-13 11:57:00,
2013-06-13 05:02:00,51.1,45.8,29.99,North,0,0.0,0.2,82,0.00,,,0.00,WUHU216HW,2013-06-13 12:02:00,
2013-06-13 05:08:00,51.1,45.5,29.99,NNE,23,0.0,0.9,81,0.00,,,0.00,WUHU216HW,2013-06-13 12:08:00,
2013-06-13 05:13:00,50.9,45.3,30.00,NE,45,0.2,1.1,81,0.00,,,0.00,WUHU216HW,2013-06-13 12:13:00,
2013-06-13 05:18:00,50.8,45.1,30.00,NE,45,0.0,1.1,81,0.00,,,0.00,WUHU216HW,2013-06-13 12:18:00,
2013-06-13 05:23:00,50.8,45.1,30.00,NE,45,0.4,0.4,81,0.00,,,0.00,WUHU216HW,2013-06-13 12:23:00,
2013-06-13 05:28:00,50.8,45.1,30.00,NE,45,0.0,0.4,81,0.00,,,0.00,WUHU216HW,2013-06-13 12:28:00,
2013-06-13 05:33:00,50.6,44.9,30.00,NE,45,0.0,0.2,81,0.00,,,0.00,WUHU216HW,2013-06-13 12:33:00,
2013-06-13 05:38:00,50.4,45.1,30.00,NE,45,0.0,0.2,82,0.00,,,0.00,WUHU216HW,2013-06-13 12:38:00,
2013-06-13 05:43:00,50.0,44.7,30.00,NE,45,0.0,0.0,82,0.00,,,0.00,WUHU216HW,2013-06-13 12:43:00,
2013-06-13 05:48:00,50.0,44.7,30.00,NE,45,0.0,0.0,82,0.00,,,0.00,WUHU216HW,2013-06-13 12:48:00,
2013-06-13 05:53:00,49.9,44.6,30.01,NE,45,0.0,0.0,82,0.00,,,0.00,WUHU216HW,2013-06-13 12:53:00,
2013-06-13 05:58:00,49.7,44.4,30.01,NE,45,0.0,0.0,82,0.00,,,0.00,WUHU216HW,2013-06-13 12:58:00,
2013-06-13 06:03:00,49.7,44.4,30.01,NE,45,0.0,0.0,82,0.00,,,0.00,WUHU216HW,2013-06-13 13:03:00,
2013-06-13 06:08:00,49.7,44.4,30.01,NE,45,0.0,0.0,82,0.00,,,0.00,WUHU216HW,2013-06-13 13:08:00,
2013-06-13 06:13:00,49.5,44.2,30.01,NE,45,0.0,0.0,82,0.00,,,0.00,WUHU216HW,2013-06-13 13:13:00,
2013-06-13 06:18:00,49.5,44.5,30.01,NE,45,0.0,0.0,83,0.00,,,0.00,WUHU216HW,2013-06-13 13:18:00,
2013-06-13 06:24:00,49.5,44.5,30.01,North,0,0.0,0.0,83,0.00,,,0.00,WUHU216HW,2013-06-13 13:24:00,
2013-06-13 06:29:00,49.5,44.5,30.01,North,0,0.2,0.2,83,0.00,,,0.00,WUHU216HW,2013-06-13 13:29:00,
2013-06-13 06:34:00,49.7,44.6,30.01,NNE,23,0.9,0.9,83,0.00,,,0.00,WUHU216HW,2013-06-13 13:34:00,
2013-06-13 06:39:00,50.0,45.0,30.00,NE,45,0.0,0.9,83,0.00,,,0.00,WUHU216HW,2013-06-13 13:39:00,
2013-06-13 06:44:00,50.2,45.6,30.01,NE,45,0.0,0.4,84,0.00,,,0.00,WUHU216HW,2013-06-13 13:44:00,
2013-06-13 06:49:00,50.6,45.9,30.01,NW,315,0.2,0.2,84,0.00,,,0.00,WUHU216HW,2013-06-13 13:49:00,
2013-06-13 06:54:00,51.1,47.0,30.01,NW,315,0.0,0.2,86,0.00,,,0.00,WUHU216HW,2013-06-13 13:54:00,
2013-06-13 06:59:00,51.7,47.5,30.01,NW,315,0.4,0.4,86,0.00,,,0.00,WUHU216HW,2013-06-13 13:59:00,
2013-06-13 07:04:00,53.1,49.0,30.01,NNW,338,0.0,0.4,86,0.00,,,0.00,WUHU216HW,2013-06-13 14:04:00,
2013-06-13 07:09:00,54.7,50.0,30.01,NNW,338,0.0,0.2,84,0.00,,,0.00,WUHU216HW,2013-06-13 14:09:00,
2013-06-13 07:14:00,56.3,50.2,30.01,NNW,338,0.2,0.2,80,0.00,,,0.00,WUHU216HW,2013-06-13 14:14:00,
2013-06-13 07:19:00,55.8,49.3,30.01,NNE,23,0.4,0.4,79,0.00,,,0.00,WUHU216HW,2013-06-13 14:19:00,
2013-06-13 07:24:00,55.4,49.0,30.01,NNW,338,0.0,0.9,79,0.00,,,0.00,WUHU216HW,2013-06-13 14:24:00,
2013-06-13 07:29:00,54.7,48.3,30.00,NW,315,0.4,0.9,79,0.00,,,0.00,WUHU216HW,2013-06-13 14:29:00,
2013-06-13 07:34:00,54.4,48.7,30.01,North,0,0.2,1.1,81,0.00,,,0.00,WUHU216HW,2013-06-13 14:34:00,
2013-06-13 07:40:00,54.2,48.5,30.01,NW,315,0.4,1.1,81,0.00,,,0.00,WUHU216HW,2013-06-13 14:40:00,
2013-06-13 07:45:00,54.0,48.3,30.01,NNW,338,0.0,0.9,81,0.00,,,0.00,WUHU216HW,2013-06-13 14:45:00,
2013-06-13 07:50:00,54.2,48.2,30.01,NW,315,0.9,0.9,80,0.00,,,0.00,WUHU216HW,2013-06-13 14:50:00,
2013-06-13 07:55:00,54.4,48.3,30.01,NNW,338,0.4,1.3,80,0.00,,,0.00,WUHU216HW,2013-06-13 14:55:00,
2013-06-13 08:00:00,54.5,48.5,30.02,NNW,338,0.0,1.3,80,0.00,,,0.00,WUHU216HW,2013-06-13 15:00:00,
2013-06-13 08:05:00,54.7,48.3,30.01,NNW,338,0.9,1.1,79,0.00,,,0.00,WUHU216HW,2013-06-13 15:05:00,
2013-06-13 08:10:00,54.9,48.2,30.01,NNW,338,0.4,1.1,78,0.00,,,0.00,WUHU216HW,2013-06-13 15:10:00,
2013-06-13 08:15:00,55.3,48.5,30.02,WNW,293,0.4,0.7,78,0.00,,,0.00,WUHU216HW,2013-06-13 15:15:00,
2013-06-13 08:20:00,55.8,49.0,30.02,SW,225,0.0,1.1,78,0.00,,,0.00,WUHU216HW,2013-06-13 15:20:00,
2013-06-13 08:25:00,56.2,48.6,30.02,WSW,248,0.2,1.8,76,0.00,,,0.00,WUHU216HW,2013-06-13 15:25:00,
2013-06-13 08:30:00,56.5,49.0,30.02,WSW,248,0.4,1.8,76,0.00,,,0.00,WUHU216HW,2013-06-13 15:30:00,
2013-06-13 08:35:00,56.9,49.0,30.02,West,270,0.4,1.1,75,0.00,,,0.00,WUHU216HW,2013-06-13 15:35:00,
2013-06-13 08:40:00,57.1,48.8,30.02,NW,315,0.4,0.7,74,0.00,,,0.00,WUHU216HW,2013-06-13 15:40:00,
2013-06-13 08:45:00,57.4,49.1,30.03,SW,225,0.4,0.9,74,0.00,,,0.00,WUHU216HW,2013-06-13 15:45:00,
2013-06-13 08:50:00,58.1,49.9,30.02,NW,315,0.9,0.9,74,0.00,,,0.00,WUHU216HW,2013-06-13 15:50:00,
2013-06-13 08:55:00,58.5,49.9,30.02,South,180,0.4,0.9,73,0.00,,,0.00,WUHU216HW,2013-06-13 15:55:00,
2013-06-13 09:00:00,58.9,50.2,30.02,SE,135,0.4,1.3,73,0.00,,,0.00,WUHU216HW,2013-06-13 16:00:00,
2013-06-13 09:06:00,59.2,50.2,30.02,West,270,0.4,1.3,72,0.00,,,0.00,WUHU216HW,2013-06-13 16:06:00,
2013-06-13 09:11:00,59.4,49.2,30.02,West,270,0.4,0.7,69,0.00,,,0.00,WUHU216HW,2013-06-13 16:11:00,
2013-06-13 09:16:00,59.6,49.1,30.02,WNW,293,0.4,0.4,68,0.00,,,0.00,WUHU216HW,2013-06-13 16:16:00,
2013-06-13 09:21:00,60.1,49.1,30.02,NNW,338,0.9,1.3,67,0.00,,,0.00,WUHU216HW,2013-06-13 16:21:00,
2013-06-13 09:26:00,60.3,49.8,30.03,West,270,1.1,1.8,68,0.00,,,0.00,WUHU216HW,2013-06-13 16:26:00,
2013-06-13 09:31:00,60.7,49.3,30.03,West,270,1.1,1.8,66,0.00,,,0.00,WUHU216HW,2013-06-13 16:31:00,
2013-06-13 09:36:00,61.0,49.6,30.03,SW,225,0.4,1.8,66,0.00,,,0.00,WUHU216HW,2013-06-13 16:36:00,
2013-06-13 09:41:00,61.2,49.4,30.03,NE,45,1.3,1.6,65,0.00,,,0.00,WUHU216HW,2013-06-13 16:41:00,
2013-06-13 09:46:00,61.9,50.1,30.03,WSW,248,2.5,2.5,65,0.00,,,0.00,WUHU216HW,2013-06-13 16:46:00,
2013-06-13 09:51:00,62.3,50.0,30.03,WNW,293,0.4,3.6,64,0.00,,,0.00,WUHU216HW,2013-06-13 16:51:00,
2013-06-13 09:56:00,62.6,49.9,30.03,East,90,0.2,3.6,63,0.00,,,0.00,WUHU216HW,2013-06-13 16:56:00,
2013-06-13 10:01:00,62.8,49.6,30.03,NNW,338,0.2,1.8,62,0.00,,,0.00,WUHU216HW,2013-06-13 17:01:00,
2013-06-13 10:06:00,63.0,49.3,30.03,North,0,0.2,1.1,61,0.00,,,0.00,WUHU216HW,2013-06-13 17:06:00,
2013-06-13 10:11:00,63.4,49.2,30.03,WSW,248,0.2,1.8,60,0.00,,,0.00,WUHU216HW,2013-06-13 17:11:00,
2013-06-13 10:16:00,63.4,49.2,30.02,SW,225,0.4,1.8,60,0.00,,,0.00,WUHU216HW,2013-06-13 17:16:00,
2013-06-13 10:21:00,63.7,49.6,30.03,West,270,1.8,1.8,60,0.00,,,0.00,WUHU216HW,2013-06-13 17:21:00,
2013-06-13 10:26:00,64.4,50.2,30.02,SW,225,1.1,2.2,60,0.00,,,0.00,WUHU216HW,2013-06-13 17:26:00,
2013-06-13 10:31:00,64.8,49.6,30.02,NW,315,0.9,2.2,58,0.00,,,0.00,WUHU216HW,2013-06-13 17:31:00,
2013-06-13 10:37:00,65.0,49.8,30.02,West,270,1.1,2.9,58,0.00,,,0.00,WUHU216HW,2013-06-13 17:37:00,
2013-06-13 10:39:00,65.7,50.5,30.02,West,270,1.8,1.8,58,0.00,,,0.00,WUHU216HW,2013-06-13 17:39:00,
2013-06-13 10:42:00,65.7,50.5,30.02,West,270,1.8,2.9,58,0.00,,,0.00,WUHU216HW,2013-06-13 17:42:00,
2013-06-13 10:47:00,65.7,50.5,30.02,West,270,1.8,2.2,58,0.00,,,0.00,WUHU216HW,2013-06-13 17:47:00,
2013-06-13 11:01:00,67.1,49.4,30.02,NNW,338,1.1,1.1,53,0.00,,,0.00,WUHU216HW,2013-06-13 18:01:00,
2013-06-13 11:06:00,67.3,50.0,30.02,SW,225,1.8,2.5,54,0.00,,,0.00,WUHU216HW,2013-06-13 18:06:00,
2013-06-13 11:11:00,68.0,50.2,30.02,West,270,0.4,2.5,53,0.00,,,0.00,WUHU216HW,2013-06-13 18:11:00,
2013-06-13 11:16:00,68.6,50.8,30.03,SE,135,2.0,3.1,53,0.00,,,0.00,WUHU216HW,2013-06-13 18:16:00,
2013-06-13 11:21:00,69.5,51.1,30.03,WSW,248,0.2,3.1,52,0.00,,,0.00,WUHU216HW,2013-06-13 18:21:00,
2013-06-13 11:26:00,69.5,50.6,30.03,WSW,248,2.5,2.5,51,0.00,,,0.00,WUHU216HW,2013-06-13 18:26:00,
2013-06-13 11:31:00,69.8,50.4,30.03,WNW,293,1.1,2.5,50,0.00,,,0.00,WUHU216HW,2013-06-13 18:31:00,
2013-06-13 11:36:00,69.8,51.0,30.03,NW,315,2.7,2.7,51,0.00,,,0.00,WUHU216HW,2013-06-13 18:36:00,
2013-06-13 11:41:00,70.2,51.2,30.03,West,270,0.4,2.7,51,0.00,,,0.00,WUHU216HW,2013-06-13 18:41:00,
2013-06-13 11:46:00,70.9,51.4,30.03,West,270,1.1,2.7,50,0.00,,,0.00,WUHU216HW,2013-06-13 18:46:00,
2013-06-13 11:51:00,71.5,51.8,30.03,WSW,248,0.4,2.7,50,0.00,,,0.00,WUHU216HW,2013-06-13 18:51:00,
2013-06-13 11:56:00,72.0,52.4,30.03,WSW,248,0.0,5.6,50,0.00,,,0.00,WUHU216HW,2013-06-13 18:56:00,
2013-06-13 12:01:00,72.4,52.1,30.03,NW,315,1.8,5.6,49,0.00,,,0.00,WUHU216HW,2013-06-13 19:01:00,
2013-06-13 12:06:00,71.8,50.4,30.03,West,270,0.7,2.2,47,0.00,,,0.00,WUHU216HW,2013-06-13 19:06:00,
2013-06-13 12:11:00,71.8,51.6,30.02,NNW,338,3.6,3.6,49,0.00,,,0.00,WUHU216HW,2013-06-13 19:11:00,
2013-06-13 12:17:00,72.0,50.6,30.02,West,270,0.9,3.6,47,0.00,,,0.00,WUHU216HW,2013-06-13 19:17:00,
2013-06-13 12:22:00,72.7,50.6,30.02,West,270,1.3,4.9,46,0.00,,,0.00,WUHU216HW,2013-06-13 19:22:00,
2013-06-13 12:27:00,73.1,51.6,30.02,NNW,338,2.0,4.0,47,0.00,,,0.00,WUHU216HW,2013-06-13 19:27:00,
2013-06-13 12:32:00,72.5,50.5,30.02,NNW,338,0.9,4.0,46,0.00,,,0.00,WUHU216HW,2013-06-13 19:32:00,
2013-06-13 12:37:00,72.4,50.3,30.02,NNE,23,0.7,3.1,46,0.00,,,0.00,WUHU216HW,2013-06-13 19:37:00,
2013-06-13 12:42:00,72.9,49.6,30.02,WSW,248,2.0,3.1,44,0.00,,,0.00,WUHU216HW,2013-06-13 19:42:00,
2013-06-13 12:47:00,73.3,48.7,30.02,NW,315,0.9,2.5,42,0.00,,,0.00,WUHU216HW,2013-06-13 19:47:00,
2013-06-13 12:52:00,73.8,48.6,30.02,NW,315,3.1,3.4,41,0.00,,,0.00,WUHU216HW,2013-06-13 19:52:00,
2013-06-13 12:57:00,73.8,48.6,30.02,WSW,248,2.2,3.4,41,0.00,,,0.00,WUHU216HW,2013-06-13 19:57:00,
2013-06-13 13:02:00,74.3,49.2,30.02,WSW,248,2.5,2.5,41,0.00,,,0.00,WUHU216HW,2013-06-13 20:02:00,
2013-06-13 13:07:00,74.9,49.0,30.02,West,270,1.8,2.5,40,0.00,,,0.00,WUHU216HW,2013-06-13 20:07:00,
2013-06-13 13:12:00,75.1,49.1,30.02,NNW,338,1.6,2.2,40,0.00,,,0.00,WUHU216HW,2013-06-13 20:12:00,
2013-06-13 13:18:00,75.4,50.1,30.01,WNW,293,2.0,2.2,41,0.00,,,0.00,WUHU216HW,2013-06-13 20:18:00,
2013-06-13 13:19:00,75.8,49.1,30.01,WSW,248,2.9,2.9,39,0.00,,,0.00,WUHU216HW,2013-06-13 20:19:00,
2013-06-13 13:23:00,75.8,49.1,30.01,WSW,248,2.9,2.9,39,0.00,,,0.00,WUHU216HW,2013-06-13 20:23:00,
2013-06-13 13:28:00,75.8,49.1,30.01,WSW,248,2.9,2.9,39,0.00,,,0.00,WUHU216HW,2013-06-13 20:28:00,
2013-06-13 14:00:00,77.0,50.2,30.01,SW,225,1.8,1.8,39,0.00,,,0.00,WUHU216HW,2013-06-13 21:00:00,
2013-06-13 14:01:00,77.0,50.2,30.01,SW,225,1.8,1.8,39,0.00,,,0.00,WUHU216HW,2013-06-13 21:01:00,
2013-06-13 14:06:00,77.0,50.2,30.01,SW,225,1.8,1.8,39,0.00,,,0.00,WUHU216HW,2013-06-13 21:06:00,
2013-06-13 15:01:00,76.1,50.8,30.00,WNW,293,3.4,3.4,41,0.00,,,0.00,WUHU216HW,2013-06-13 22:01:00,
2013-06-13 15:06:00,75.6,51.5,30.00,NNW,338,1.8,3.4,43,0.00,,,0.00,WUHU216HW,2013-06-13 22:06:00,
2013-06-13 15:11:00,75.1,51.0,30.00,West,270,4.0,4.0,43,0.00,,,0.00,WUHU216HW,2013-06-13 22:11:00,
2013-06-13 15:16:00,75.1,51.0,30.00,WNW,293,1.8,4.0,43,0.00,,,0.00,WUHU216HW,2013-06-13 22:16:00,
2013-06-13 15:21:00,74.9,51.4,30.00,WNW,293,0.9,3.4,44,0.00,,,0.00,WUHU216HW,2013-06-13 22:21:00,
2013-06-13 15:26:00,75.2,51.1,30.00,NW,315,2.5,4.7,43,0.00,,,0.00,WUHU216HW,2013-06-13 22:26:00,
2013-06-13 15:31:00,75.4,51.9,30.00,NNW,338,1.1,4.7,44,0.00,,,0.00,WUHU216HW,2013-06-13 22:31:00,
2013-06-13 15:36:00,75.2,51.1,30.00,West,270,3.4,3.4,43,0.00,,,0.00,WUHU216HW,2013-06-13 22:36:00,
2013-06-13 15:41:00,75.2,50.6,30.00,WSW,248,2.5,3.4,42,0.00,,,0.00,WUHU216HW,2013-06-13 22:41:00,
2013-06-13 15:46:00,75.6,50.9,29.99,NNW,338,0.9,3.4,42,0.00,,,0.00,WUHU216HW,2013-06-13 22:46:00,
2013-06-13 15:51:00,74.5,50.5,29.99,West,270,4.5,4.7,43,0.00,,,0.00,WUHU216HW,2013-06-13 22:51:00,
2013-06-13 15:56:00,74.7,51.3,29.99,WSW,248,2.9,4.7,44,0.00,,,0.00,WUHU216HW,2013-06-13 22:56:00,
2013-06-13 16:02:00,74.5,51.1,29.99,NW,315,1.8,2.9,44,0.00,,,0.00,WUHU216HW,2013-06-13 23:02:00,
2013-06-13 16:07:00,74.2,50.8,29.99,West,270,2.7,2.7,44,0.00,,,0.00,WUHU216HW,2013-06-13 23:07:00,
2013-06-13 16:12:00,74.9,52.0,29.99,NNW,338,2.7,4.0,45,0.00,,,0.00,WUHU216HW,2013-06-13 23:12:00,
2013-06-13 16:17:00,76.7,51.8,29.99,NW,315,1.8,4.0,42,0.00,,,0.00,WUHU216HW,2013-06-13 23:17:00,
2013-06-13 16:22:00,77.4,51.8,29.99,NW,315,1.8,3.1,41,0.00,,,0.00,WUHU216HW,2013-06-13 23:22:00,
2013-06-13 16:27:00,77.9,51.8,29.99,NW,315,1.3,3.4,40,0.00,,,0.00,WUHU216HW,2013-06-13 23:27:00,
2013-06-13 16:32:00,78.5,50.7,29.99,NW,315,1.8,3.4,38,0.00,,,0.00,WUHU216HW,2013-06-13 23:32:00,
2013-06-13 16:37:00,77.6,49.9,29.99,NNW,338,3.1,3.4,38,0.00,,,0.00,WUHU216HW,2013-06-13 23:37:00,
2013-06-13 16:42:00,77.4,47.4,29.99,NW,315,1.8,3.1,35,0.00,,,0.00,WUHU216HW,2013-06-13 23:42:00,
2013-06-13 16:47:00,79.6,50.1,29.99,West,270,1.8,4.3,36,0.00,,,0.00,WUHU216HW,2013-06-13 23:47:00,
2013-06-13 16:52:00,79.2,48.2,29.98,West,270,1.3,4.3,34,0.00,,,0.00,WUHU216HW,2013-06-13 23:52:00,
2013-06-13 16:57:00,77.6,49.1,29.98,NW,315,1.6,2.2,37,0.00,,,0.00,WUHU216HW,2013-06-13 23:57:00,
2013-06-13 17:02:00,79.2,49.1,29.98,NW,315,0.9,4.0,35,0.00,,,0.00,WUHU216HW,2013-06-14 00:02:00,
2013-06-13 17:07:00,77.4,47.4,29.98,NNW,338,0.4,4.0,35,0.00,,,0.00,WUHU216HW,2013-06-14 00:07:00,
2013-06-13 17:12:00,76.7,49.2,29.98,West,270,3.6,3.6,38,0.00,,,0.00,WUHU216HW,2013-06-14 00:12:00,
2013-06-13 17:17:00,77.4,49.8,29.98,NNW,338,1.8,3.6,38,0.00,,,0.00,WUHU216HW,2013-06-14 00:17:00,
2013-06-13 17:23:00,76.3,49.5,29.98,NNW,338,0.4,2.5,39,0.00,,,0.00,WUHU216HW,2013-06-14 00:23:00,
2013-06-13 17:28:00,77.8,49.3,29.98,NW,315,1.8,3.4,37,0.00,,,0.00,WUHU216HW,2013-06-14 00:28:00,
2013-06-13 17:33:00,78.1,48.1,29.98,North,0,1.3,3.4,35,0.00,,,0.00,WUHU216HW,2013-06-14 00:33:00,
2013-06-13 17:38:00,78.1,49.6,29.97,WNW,293,1.8,2.5,37,0.00,,,0.00,WUHU216HW,2013-06-14 00:38:00,
2013-06-13 17:43:00,78.7,50.0,29.97,WSW,248,1.1,2.7,37,0.00,,,0.00,WUHU216HW,2013-06-14 00:43:00,
2013-06-13 17:48:00,77.8,50.0,29.97,NNW,338,1.8,2.7,38,0.00,,,0.00,WUHU216HW,2013-06-14 00:48:00,
2013-06-13 17:53:00,76.3,49.5,29.97,NNW,338,1.1,2.2,39,0.00,,,0.00,WUHU216HW,2013-06-14 00:53:00,
2013-06-13 17:58:00,77.0,50.2,29.97,NW,315,1.6,2.2,39,0.00,,,0.00,WUHU216HW,2013-06-14 00:58:00,
2013-06-13 18:03:00,77.0,50.2,29.96,SW,225,1.8,2.2,39,0.00,,,0.00,WUHU216HW,2013-06-14 01:03:00,
2013-06-13 18:08:00,78.8,51.0,29.96,NW,315,0.4,3.4,38,0.00,,,0.00,WUHU216HW,2013-06-14 01:08:00,
2013-06-13 18:13:00,80.1,49.9,29.96,WNW,293,2.2,3.4,35,0.00,,,0.00,WUHU216HW,2013-06-14 01:13:00,
2013-06-13 18:18:00,80.5,51.7,29.96,WSW,248,1.1,2.9,37,0.00,,,0.00,WUHU216HW,2013-06-14 01:18:00,
2013-06-13 18:23:00,79.0,50.4,29.96,NNW,338,1.1,2.9,37,0.00,,,0.00,WUHU216HW,2013-06-14 01:23:00,
2013-06-13 18:28:00,76.0,50.6,29.96,NNW,338,0.2,1.8,41,0.00,,,0.00,WUHU216HW,2013-06-14 01:28:00,
2013-06-13 18:33:00,75.4,50.7,29.95,NNW,338,0.7,1.8,42,0.00,,,0.00,WUHU216HW,2013-06-14 01:33:00,
2013-06-13 18:38:00,74.7,50.0,29.96,NNW,338,1.8,1.8,42,0.00,,,0.00,WUHU216HW,2013-06-14 01:38:00,
2013-06-13 18:43:00,74.0,50.6,29.96,North,0,0.4,1.8,44,0.00,,,0.00,WUHU216HW,2013-06-14 01:43:00,
2013-06-13 18:48:00,72.7,50.6,29.95,NW,315,0.0,1.6,46,0.00,,,0.00,WUHU216HW,2013-06-14 01:48:00,
2013-06-13 18:54:00,72.5,49.9,29.95,North,0,0.0,1.6,45,0.00,,,0.00,WUHU216HW,2013-06-14 01:54:00,
2013-06-13 18:59:00,72.2,50.1,29.95,NNW,338,0.0,1.1,46,0.00,,,0.00,WUHU216HW,2013-06-14 01:59:00,
2013-06-13 19:04:00,74.0,51.2,29.95,West,270,0.7,1.8,45,0.00,,,0.00,WUHU216HW,2013-06-14 02:04:00,
2013-06-13 19:09:00,74.2,50.8,29.95,West,270,1.1,1.8,44,0.00,,,0.00,WUHU216HW,2013-06-14 02:09:00,
2013-06-13 19:14:00,73.8,51.6,29.95,North,0,0.4,2.7,46,0.00,,,0.00,WUHU216HW,2013-06-14 02:14:00,
2013-06-13 19:19:00,72.0,51.8,29.95,NNW,338,2.5,2.7,49,0.00,,,0.00,WUHU216HW,2013-06-14 02:19:00,
2013-06-13 19:24:00,71.3,52.8,29.95,NNW,338,2.0,2.5,52,0.00,,,0.00,WUHU216HW,2013-06-14 02:24:00,
2013-06-13 19:29:00,70.2,52.7,29.96,NW,315,1.1,2.7,54,0.00,,,0.00,WUHU216HW,2013-06-14 02:29:00,
2013-06-13 19:34:00,69.1,51.8,29.96,WSW,248,1.8,2.7,54,0.00,,,0.00,WUHU216HW,2013-06-14 02:34:00,
2013-06-13 19:39:00,68.9,51.6,29.96,WNW,293,1.1,1.8,54,0.00,,,0.00,WUHU216HW,2013-06-14 02:39:00,
2013-06-13 19:44:00,68.0,51.7,29.96,NNW,338,1.8,1.8,56,0.00,,,0.00,WUHU216HW,2013-06-14 02:44:00,
2013-06-13 19:49:00,66.4,51.7,29.96,NNW,338,1.1,1.8,59,0.00,,,0.00,WUHU216HW,2013-06-14 02:49:00,
2013-06-13 19:54:00,65.7,51.5,29.95,NW,315,0.4,2.2,60,0.00,,,0.00,WUHU216HW,2013-06-14 02:54:00,
2013-06-13 19:59:00,65.5,51.8,29.96,NNW,338,0.7,2.2,61,0.00,,,0.00,WUHU216HW,2013-06-14 02:59:00,
2013-06-13 20:04:00,65.2,50.9,29.96,West,270,0.9,1.3,60,0.00,,,0.00,WUHU216HW,2013-06-14 03:04:00,
2013-06-13 20:09:00,65.2,51.4,29.96,NW,315,1.8,1.8,61,0.00,,,0.00,WUHU216HW,2013-06-14 03:09:00,
2013-06-13 20:15:00,64.6,51.7,29.96,NW,315,1.8,1.8,63,0.00,,,0.00,WUHU216HW,2013-06-14 03:15:00,
2013-06-13 20:20:00,64.3,51.8,29.95,NW,315,1.6,1.8,64,0.00,,,0.00,WUHU216HW,2013-06-14 03:20:00,
2013-06-13 20:25:00,63.4,51.4,29.95,NNW,338,1.6,1.6,65,0.00,,,0.00,WUHU216HW,2013-06-14 03:25:00,
2013-06-13 20:30:00,63.0,51.0,29.95,NW,315,0.4,1.6,65,0.00,,,0.00,WUHU216HW,2013-06-14 03:30:00,
2013-06-13 20:35:00,62.6,51.9,29.96,WNW,293,0.7,1.1,68,0.00,,,0.00,WUHU216HW,2013-06-14 03:35:00,
2013-06-13 20:40:00,62.1,51.8,29.96,WNW,293,0.4,1.1,69,0.00,,,0.00,WUHU216HW,2013-06-14 03:40:00,
2013-06-13 20:45:00,61.6,51.4,29.96,NW,315,0.2,1.1,69,0.00,,,0.00,WUHU216HW,2013-06-14 03:45:00,
2013-06-13 20:50:00,61.4,51.2,29.96,NNW,338,1.6,1.6,69,0.00,,,0.00,WUHU216HW,2013-06-14 03:50:00,
2013-06-13 20:55:00,60.8,51.1,29.96,NNW,338,0.9,1.6,70,0.00,,,0.00,WUHU216HW,2013-06-14 03:55:00,
2013-06-13 21:00:00,60.7,51.3,29.96,NNW,338,1.1,1.6,71,0.00,,,0.00,WUHU216HW,2013-06-14 04:00:00,
2013-06-13 21:01:00,60.7,51.3,29.96,NNW,338,0.4,1.6,71,0.00,,,0.00,WUHU216HW,2013-06-14 04:01:00,
2013-06-13 21:02:00,60.5,51.1,29.95,NNW,338,0.9,1.6,71,0.00,,,0.00,WUHU216HW,2013-06-14 04:02:00,
2013-06-13 21:08:00,60.3,51.3,29.96,NNW,338,1.1,1.6,72,0.00,,,0.00,WUHU216HW,2013-06-14 04:08:00,
2013-06-13 21:13:00,60.1,51.1,29.95,WNW,293,1.3,1.3,72,0.00,,,0.00,WUHU216HW,2013-06-14 04:13:00,
2013-06-13 21:18:00,60.1,51.1,29.96,WNW,293,0.4,1.3,72,0.00,,,0.00,WUHU216HW,2013-06-14 04:18:00,
2013-06-13 21:23:00,60.1,50.8,29.96,WNW,293,0.4,0.4,71,0.00,,,0.00,WUHU216HW,2013-06-14 04:23:00,
2013-06-13 21:28:00,59.9,51.3,29.96,NW,315,0.4,0.7,73,0.00,,,0.00,WUHU216HW,2013-06-14 04:28:00,
2013-06-13 21:33:00,59.8,51.5,29.96,NNW,338,1.1,1.1,74,0.00,,,0.00,WUHU216HW,2013-06-14 04:33:00,
2013-06-13 21:38:00,59.4,51.1,29.96,NNW,338,1.8,1.8,74,0.00,,,0.00,WUHU216HW,2013-06-14 04:38:00,
2013-06-13 21:43:00,59.4,51.1,29.96,North,0,0.2,1.8,74,0.00,,,0.00,WUHU216HW,2013-06-14 04:43:00,
2013-06-13 21:48:00,59.4,51.1,29.96,NW,315,0.4,0.7,74,0.00,,,0.00,WUHU216HW,2013-06-14 04:48:00,
2013-06-13 21:53:00,59.0,51.1,29.95,NW,315,0.2,0.9,75,0.00,,,0.00,WUHU216HW,2013-06-14 04:53:00,
2013-06-13 21:58:00,59.0,51.1,29.95,WNW,293,1.1,1.1,75,0.00,,,0.00,WUHU216HW,2013-06-14 04:58:00,
2013-06-13 22:03:00,58.9,50.9,29.96,WNW,293,0.4,1.8,75,0.00,,,0.00,WUHU216HW,2013-06-14 05:03:00,
2013-06-13 22:08:00,58.7,51.1,29.96,NNW,338,0.4,1.8,76,0.00,,,0.00,WUHU216HW,2013-06-14 05:08:00,
2013-06-13 22:13:00,58.7,51.1,29.96,NW,315,0.2,0.9,76,0.00,,,0.00,WUHU216HW,2013-06-14 05:13:00,
2013-06-13 22:19:00,58.7,51.1,29.96,WNW,293,0.2,1.3,76,0.00,,,0.00,WUHU216HW,2013-06-14 05:19:00,
2013-06-13 22:24:00,58.5,50.9,29.96,NW,315,0.4,1.3,76,0.00,,,0.00,WUHU216HW,2013-06-14 05:24:00,
2013-06-13 22:29:00,58.3,50.8,29.96,NW,315,0.2,0.4,76,0.00,,,0.00,WUHU216HW,2013-06-14 05:29:00,
2013-06-13 22:34:00,58.3,51.1,29.96,NW,315,0.0,0.4,77,0.00,,,0.00,WUHU216HW,2013-06-14 05:34:00,
2013-06-13 22:39:00,58.1,50.6,29.96,NW,315,0.0,0.4,76,0.00,,,0.00,WUHU216HW,2013-06-14 05:39:00,
2013-06-13 22:44:00,58.0,50.0,29.96,NW,315,0.0,0.0,75,0.00,,,0.00,WUHU216HW,2013-06-14 05:44:00,
2013-06-13 22:49:00,58.0,49.7,29.96,NW,315,0.0,0.0,74,0.00,,,0.00,WUHU216HW,2013-06-14 05:49:00,
2013-06-13 22:54:00,57.6,49.3,29.95,NW,315,0.0,0.0,74,0.00,,,0.00,WUHU216HW,2013-06-14 05:54:00,
2013-06-13 22:59:00,57.4,49.1,29.95,NW,315,0.0,0.0,74,0.00,,,0.00,WUHU216HW,2013-06-14 05:59:00,
2013-06-13 23:04:00,57.2,49.0,29.95,NW,315,0.0,0.0,74,0.00,,,0.00,WUHU216HW,2013-06-14 06:04:00,
2013-06-13 23:09:00,57.1,48.8,29.95,NW,315,0.0,0.0,74,0.00,,,0.00,WUHU216HW,2013-06-14 06:09:00,
2013-06-13 23:14:00,57.1,48.8,29.95,NW,315,0.0,0.0,74,0.00,,,0.00,WUHU216HW,2013-06-14 06:14:00,
2013-06-13 23:19:00,56.9,48.6,29.95,NW,315,0.0,0.0,74,0.00,,,0.00,WUHU216HW,2013-06-14 06:19:00,
2013-06-13 23:24:00,56.7,48.8,29.95,NW,315,0.0,0.0,75,0.00,,,0.00,WUHU216HW,2013-06-14 06:24:00,
2013-06-13 23:29:00,56.3,48.8,29.95,NW,315,0.0,0.0,76,0.00,,,0.00,WUHU216HW,2013-06-14 06:29:00,
2013-06-13 23:34:00,56.2,48.6,29.94,NW,315,0.0,0.0,76,0.00,,,0.00,WUHU216HW,2013-06-14 06:34:00,
2013-06-13 23:39:00,56.0,48.5,29.94,NW,315,0.0,0.0,76,0.00,,,0.00,WUHU216HW,2013-06-14 06:39:00,
2013-06-13 23:45:00,56.0,48.5,29.94,NW,315,0.0,0.0,76,0.00,,,0.00,WUHU216HW,2013-06-14 06:45:00,
2013-06-13 23:50:00,55.8,48.3,29.94,NW,315,0.0,0.0,76,0.00,,,0.00,WUHU216HW,2013-06-14 06:50:00,
2013-06-13 23:55:00,55.8,48.3,29.94,NW,315,0.0,0.0,76,0.00,,,0.00,WUHU216HW,2013-06-14 06:55:00,